sensor_id;sensor_type;location;lat;lon;timestamp;pressure;altitude;pressure_sealevel;temperature;humidity
27294;BME280;14785;52.556;13.430;2023-02-04T00:01:30;101386.19;;;5.27;100.00
27294;BME280;14785;52.556;13.430;2023-02-04T00:03:55;101396.34;;;5.20;100.00
27294;BME280;14785;52.556;13.430;2023-02-04T00:06:21;101412.69;;;5.38;100.00
27294;BME280;14785;52.556;13.430;2023-02-04T00:08:46;101418.06;;;5.61;100.00
27294;BME280;14785;52.556;13.430;2023-02-04T00:11:12;101426.28;;;5.57;100.00
27294;BME280;14785;52.556;13.430;2023-02-04T00:13:37;101429.47;;;5.62;100.00
27294;BME280;14785;52.556;13.430;2023-02-04T00:16:03;101439.16;;;5.74;100.00
27294;BME280;14785;52.556;13.430;2023-02-04T00:18:28;101441.31;;;5.56;100.00
27294;BME280;14785;52.556;13.430;2023-02-04T00:20:54;101461.97;;;5.75;100.00
27294;BME280;14785;52.556;13.430;2023-02-04T00:23:21;101464.28;;;5.54;100.00
27294;BME280;14785;52.556;13.430;2023-02-04T00:25:46;101471.47;;;5.40;100.00
27294;BME280;14785;52.556;13.430;2023-02-04T00:28:11;101486.19;;;5.94;100.00
27294;BME280;14785;52.556;13.430;2023-02-04T00:30:37;101475.78;;;5.66;100.00
27294;BME280;14785;52.556;13.430;2023-02-04T00:33:02;101496.81;;;5.80;100.00
27294;BME280;14785;52.556;13.430;2023-02-04T00:35:28;101510.34;;;5.75;100.00
27294;BME280;14785;52.556;13.430;2023-02-04T00:37:53;101546.59;;;6.11;100.00
27294;BME280;14785;52.556;13.430;2023-02-04T00:40:19;101534.22;;;5.99;100.00
27294;BME280;14785;52.556;13.430;2023-02-04T00:42:44;101549.06;;;5.75;100.00
27294;BME280;14785;52.556;13.430;2023-02-04T00:45:11;101540.16;;;5.51;100.00
27294;BME280;14785;52.556;13.430;2023-02-04T00:47:37;101560.88;;;5.57;100.00
27294;BME280;14785;52.556;13.430;2023-02-04T00:50:04;101566.84;;;5.34;100.00
27294;BME280;14785;52.556;13.430;2023-02-04T00:52:29;101581.91;;;5.32;100.00
27294;BME280;14785;52.556;13.430;2023-02-04T00:54:55;101592.94;;;5.12;100.00
27294;BME280;14785;52.556;13.430;2023-02-04T00:57:20;101611.41;;;5.51;100.00
27294;BME280;14785;52.556;13.430;2023-02-04T00:59:46;101621.97;;;5.51;100.00
27294;BME280;14785;52.556;13.430;2023-02-04T01:02:11;101642.28;;;5.63;100.00
27294;BME280;14785;52.556;13.430;2023-02-04T01:04:37;101636.72;;;5.41;100.00
27294;BME280;14785;52.556;13.430;2023-02-04T01:07:02;101648.53;;;5.48;100.00
27294;BME280;14785;52.556;13.430;2023-02-04T01:09:28;101659.31;;;5.45;100.00
27294;BME280;14785;52.556;13.430;2023-02-04T01:11:53;101671.91;;;5.27;100.00
27294;BME280;14785;52.556;13.430;2023-02-04T01:14:18;101671.84;;;5.68;100.00
27294;BME280;14785;52.556;13.430;2023-02-04T01:16:44;101687.03;;;5.64;100.00
27294;BME280;14785;52.556;13.430;2023-02-04T01:19:10;101685.44;;;5.62;100.00
27294;BME280;14785;52.556;13.430;2023-02-04T01:21:36;101688.56;;;5.81;100.00
27294;BME280;14785;52.556;13.430;2023-02-04T01:24:01;101686.03;;;5.79;100.00
27294;BME280;14785;52.556;13.430;2023-02-04T01:26:26;101701.13;;;6.04;100.00
27294;BME280;14785;52.556;13.430;2023-02-04T01:28:52;101712.06;;;5.85;100.00
27294;BME280;14785;52.556;13.430;2023-02-04T01:31:17;101727.13;;;5.57;100.00
27294;BME280;14785;52.556;13.430;2023-02-04T01:33:43;101732.84;;;5.37;100.00
27294;BME280;14785;52.556;13.430;2023-02-04T01:36:09;101741.28;;;5.42;100.00
27294;BME280;14785;52.556;13.430;2023-02-04T01:38:35;101759.16;;;4.96;100.00
27294;BME280;14785;52.556;13.430;2023-02-04T01:41:01;101765.97;;;5.41;100.00
27294;BME280;14785;52.556;13.430;2023-02-04T01:43:28;101759.78;;;5.14;100.00
27294;BME280;14785;52.556;13.430;2023-02-04T01:45:53;101761.47;;;5.43;100.00
27294;BME280;14785;52.556;13.430;2023-02-04T01:48:20;101768.44;;;5.44;100.00
27294;BME280;14785;52.556;13.430;2023-02-04T01:50:48;101780.31;;;5.23;100.00
27294;BME280;14785;52.556;13.430;2023-02-04T01:53:19;101787.28;;;5.24;100.00
27294;BME280;14785;52.556;13.430;2023-02-04T01:55:48;101790.00;;;5.22;100.00
27294;BME280;14785;52.556;13.430;2023-02-04T01:58:14;101797.28;;;5.05;100.00
27294;BME280;14785;52.556;13.430;2023-02-04T02:00:40;101811.41;;;5.32;100.00
27294;BME280;14785;52.556;13.430;2023-02-04T02:03:07;101820.81;;;5.50;100.00
27294;BME280;14785;52.556;13.430;2023-02-04T02:08:08;101839.19;;;5.37;100.00
27294;BME280;14785;52.556;13.430;2023-02-04T02:10:35;101844.00;;;5.03;100.00
27294;BME280;14785;52.556;13.430;2023-02-04T02:13:03;101849.59;;;4.83;100.00
27294;BME280;14785;52.556;13.430;2023-02-04T02:15:29;101868.88;;;5.41;100.00
27294;BME280;14785;52.556;13.430;2023-02-04T02:17:55;101875.47;;;5.48;100.00
27294;BME280;14785;52.556;13.430;2023-02-04T02:20:22;101870.25;;;4.90;100.00
27294;BME280;14785;52.556;13.430;2023-02-04T02:22:51;101874.72;;;5.32;100.00
27294;BME280;14785;52.556;13.430;2023-02-04T02:25:22;101889.06;;;5.70;100.00
27294;BME280;14785;52.556;13.430;2023-02-04T02:27:47;101888.06;;;5.15;100.00
27294;BME280;14785;52.556;13.430;2023-02-04T02:30:14;101894.69;;;5.50;100.00
27294;BME280;14785;52.556;13.430;2023-02-04T02:32:42;101910.53;;;5.50;100.00
27294;BME280;14785;52.556;13.430;2023-02-04T02:35:09;101904.69;;;5.59;100.00
27294;BME280;14785;52.556;13.430;2023-02-04T02:37:35;101915.25;;;5.73;100.00
27294;BME280;14785;52.556;13.430;2023-02-04T02:40:00;101919.72;;;5.87;100.00
27294;BME280;14785;52.556;13.430;2023-02-04T02:42:26;101921.84;;;5.66;100.00
27294;BME280;14785;52.556;13.430;2023-02-04T02:44:52;101927.88;;;5.96;100.00
27294;BME280;14785;52.556;13.430;2023-02-04T02:47:20;101933.31;;;5.23;100.00
27294;BME280;14785;52.556;13.430;2023-02-04T02:49:48;101939.97;;;5.14;100.00
27294;BME280;14785;52.556;13.430;2023-02-04T02:52:15;101946.25;;;5.41;100.00
27294;BME280;14785;52.556;13.430;2023-02-04T02:54:41;101949.91;;;5.39;100.00
27294;BME280;14785;52.556;13.430;2023-02-04T02:57:19;101956.91;;;5.54;100.00
27294;BME280;14785;52.556;13.430;2023-02-04T02:59:45;101960.31;;;5.70;100.00
27294;BME280;14785;52.556;13.430;2023-02-04T03:02:17;101970.81;;;5.42;100.00
27294;BME280;14785;52.556;13.430;2023-02-04T03:04:52;101974.75;;;4.91;100.00
27294;BME280;14785;52.556;13.430;2023-02-04T03:07:18;101978.28;;;4.30;100.00
27294;BME280;14785;52.556;13.430;2023-02-04T03:09:45;101977.69;;;4.56;100.00
27294;BME280;14785;52.556;13.430;2023-02-04T03:12:11;101993.06;;;4.48;100.00
27294;BME280;14785;52.556;13.430;2023-02-04T03:14:39;101999.28;;;4.62;100.00
27294;BME280;14785;52.556;13.430;2023-02-04T03:17:07;102006.75;;;4.54;100.00
27294;BME280;14785;52.556;13.430;2023-02-04T03:19:33;102009.72;;;4.33;100.00
27294;BME280;14785;52.556;13.430;2023-02-04T03:22:01;102018.44;;;4.18;100.00
27294;BME280;14785;52.556;13.430;2023-02-04T03:24:27;102034.72;;;4.88;100.00
27294;BME280;14785;52.556;13.430;2023-02-04T03:26:52;102041.25;;;4.96;100.00
27294;BME280;14785;52.556;13.430;2023-02-04T03:29:17;102043.44;;;5.04;100.00
27294;BME280;14785;52.556;13.430;2023-02-04T03:31:43;102054.94;;;4.72;100.00
27294;BME280;14785;52.556;13.430;2023-02-04T03:34:08;102068.63;;;4.63;100.00
27294;BME280;14785;52.556;13.430;2023-02-04T03:36:34;102062.50;;;4.78;100.00
27294;BME280;14785;52.556;13.430;2023-02-04T03:39:00;102059.41;;;4.23;100.00
27294;BME280;14785;52.556;13.430;2023-02-04T03:41:26;102069.63;;;3.97;100.00
27294;BME280;14785;52.556;13.430;2023-02-04T03:43:51;102080.44;;;4.08;100.00
27294;BME280;14785;52.556;13.430;2023-02-04T03:46:17;102099.66;;;4.25;100.00
27294;BME280;14785;52.556;13.430;2023-02-04T03:48:42;102101.97;;;3.98;100.00
27294;BME280;14785;52.556;13.430;2023-02-04T03:51:07;102129.84;;;3.68;100.00
27294;BME280;14785;52.556;13.430;2023-02-04T03:53:33;102135.44;;;3.79;100.00
27294;BME280;14785;52.556;13.430;2023-02-04T03:55:58;102138.91;;;4.14;100.00
27294;BME280;14785;52.556;13.430;2023-02-04T03:58:24;102151.09;;;4.00;100.00
27294;BME280;14785;52.556;13.430;2023-02-04T04:00:49;102152.22;;;3.94;100.00
27294;BME280;14785;52.556;13.430;2023-02-04T04:03:14;102149.78;;;4.24;100.00
27294;BME280;14785;52.556;13.430;2023-02-04T04:05:40;102164.53;;;4.11;100.00
27294;BME280;14785;52.556;13.430;2023-02-04T04:08:05;102170.53;;;4.47;100.00
27294;BME280;14785;52.556;13.430;2023-02-04T04:10:31;102177.50;;;3.62;100.00
27294;BME280;14785;52.556;13.430;2023-02-04T04:12:56;102180.28;;;3.42;100.00
27294;BME280;14785;52.556;13.430;2023-02-04T04:15:22;102184.97;;;3.88;100.00
27294;BME280;14785;52.556;13.430;2023-02-04T04:17:47;102185.59;;;4.60;100.00
27294;BME280;14785;52.556;13.430;2023-02-04T04:20:13;102196.75;;;4.16;100.00
27294;BME280;14785;52.556;13.430;2023-02-04T04:22:38;102207.72;;;4.24;100.00
27294;BME280;14785;52.556;13.430;2023-02-04T04:25:04;102207.25;;;4.50;100.00
27294;BME280;14785;52.556;13.430;2023-02-04T04:27:30;102209.91;;;4.16;100.00
27294;BME280;14785;52.556;13.430;2023-02-04T04:29:56;102208.97;;;4.99;100.00
27294;BME280;14785;52.556;13.430;2023-02-04T04:32:22;102228.09;;;4.54;100.00
27294;BME280;14785;52.556;13.430;2023-02-04T04:34:47;102226.72;;;4.30;100.00
27294;BME280;14785;52.556;13.430;2023-02-04T04:37:13;102233.13;;;4.42;100.00
27294;BME280;14785;52.556;13.430;2023-02-04T04:39:38;102246.84;;;4.31;100.00
27294;BME280;14785;52.556;13.430;2023-02-04T04:42:04;102253.72;;;4.51;100.00
27294;BME280;14785;52.556;13.430;2023-02-04T04:44:29;102254.03;;;4.45;100.00
27294;BME280;14785;52.556;13.430;2023-02-04T04:46:55;102265.94;;;4.86;100.00
27294;BME280;14785;52.556;13.430;2023-02-04T04:49:20;102275.75;;;4.67;100.00
27294;BME280;14785;52.556;13.430;2023-02-04T04:51:46;102275.91;;;4.30;100.00
27294;BME280;14785;52.556;13.430;2023-02-04T04:54:11;102284.91;;;4.43;100.00
27294;BME280;14785;52.556;13.430;2023-02-04T04:56:36;102291.41;;;4.70;100.00
27294;BME280;14785;52.556;13.430;2023-02-04T04:59:02;102288.00;;;4.34;100.00
27294;BME280;14785;52.556;13.430;2023-02-04T05:01:31;102296.28;;;4.26;100.00
27294;BME280;14785;52.556;13.430;2023-02-04T05:03:56;102305.97;;;4.60;100.00
27294;BME280;14785;52.556;13.430;2023-02-04T05:06:22;102314.91;;;4.90;100.00
27294;BME280;14785;52.556;13.430;2023-02-04T05:08:52;102315.16;;;4.34;100.00
27294;BME280;14785;52.556;13.430;2023-02-04T05:11:19;102320.38;;;4.19;100.00
27294;BME280;14785;52.556;13.430;2023-02-04T05:13:44;102327.47;;;4.17;100.00
27294;BME280;14785;52.556;13.430;2023-02-04T05:16:10;102324.84;;;4.00;100.00
27294;BME280;14785;52.556;13.430;2023-02-04T05:18:37;102331.22;;;4.47;100.00
27294;BME280;14785;52.556;13.430;2023-02-04T05:21:02;102337.81;;;4.55;100.00
27294;BME280;14785;52.556;13.430;2023-02-04T05:23:28;102341.81;;;4.11;100.00
27294;BME280;14785;52.556;13.430;2023-02-04T05:25:53;102347.28;;;4.07;100.00
27294;BME280;14785;52.556;13.430;2023-02-04T05:28:18;102353.72;;;4.71;100.00
27294;BME280;14785;52.556;13.430;2023-02-04T05:30:44;102366.09;;;4.69;100.00
27294;BME280;14785;52.556;13.430;2023-02-04T05:33:09;102363.44;;;4.35;100.00
27294;BME280;14785;52.556;13.430;2023-02-04T05:35:35;102370.38;;;3.83;100.00
27294;BME280;14785;52.556;13.430;2023-02-04T05:38:00;102386.75;;;4.61;100.00
27294;BME280;14785;52.556;13.430;2023-02-04T05:40:25;102392.31;;;4.89;100.00
27294;BME280;14785;52.556;13.430;2023-02-04T05:42:51;102392.28;;;4.38;100.00
27294;BME280;14785;52.556;13.430;2023-02-04T05:45:16;102404.66;;;4.71;100.00
27294;BME280;14785;52.556;13.430;2023-02-04T05:47:43;102405.97;;;4.97;100.00
27294;BME280;14785;52.556;13.430;2023-02-04T05:50:08;102408.47;;;4.12;100.00
27294;BME280;14785;52.556;13.430;2023-02-04T05:52:34;102410.97;;;4.15;100.00
27294;BME280;14785;52.556;13.430;2023-02-04T05:54:59;102423.72;;;4.93;100.00
27294;BME280;14785;52.556;13.430;2023-02-04T05:57:25;102423.16;;;4.87;100.00
27294;BME280;14785;52.556;13.430;2023-02-04T05:59:50;102435.47;;;4.52;100.00
27294;BME280;14785;52.556;13.430;2023-02-04T06:02:15;102433.72;;;4.70;100.00
27294;BME280;14785;52.556;13.430;2023-02-04T06:04:41;102433.72;;;4.70;100.00
27294;BME280;14785;52.556;13.430;2023-02-04T06:07:06;102447.22;;;4.98;100.00
27294;BME280;14785;52.556;13.430;2023-02-04T06:09:32;102458.50;;;4.30;100.00
27294;BME280;14785;52.556;13.430;2023-02-04T06:11:57;102464.44;;;3.98;100.00
27294;BME280;14785;52.556;13.430;2023-02-04T06:14:23;102468.03;;;3.77;100.00
27294;BME280;14785;52.556;13.430;2023-02-04T06:16:48;102472.16;;;3.82;100.00
27294;BME280;14785;52.556;13.430;2023-02-04T06:19:13;102472.25;;;4.00;100.00
27294;BME280;14785;52.556;13.430;2023-02-04T06:21:39;102474.00;;;3.42;100.00
27294;BME280;14785;52.556;13.430;2023-02-04T06:24:05;102474.72;;;3.45;100.00
27294;BME280;14785;52.556;13.430;2023-02-04T06:26:30;102489.03;;;3.38;100.00
27294;BME280;14785;52.556;13.430;2023-02-04T06:28:55;102482.34;;;3.31;100.00
27294;BME280;14785;52.556;13.430;2023-02-04T06:31:21;102492.88;;;3.51;100.00
27294;BME280;14785;52.556;13.430;2023-02-04T06:33:46;102503.50;;;3.68;100.00
27294;BME280;14785;52.556;13.430;2023-02-04T06:36:12;102500.47;;;3.17;100.00
27294;BME280;14785;52.556;13.430;2023-02-04T06:38:37;102506.00;;;3.11;100.00
27294;BME280;14785;52.556;13.430;2023-02-04T06:41:03;102513.16;;;3.28;100.00
27294;BME280;14785;52.556;13.430;2023-02-04T06:43:28;102511.25;;;2.70;100.00
27294;BME280;14785;52.556;13.430;2023-02-04T06:45:53;102509.69;;;3.07;100.00
27294;BME280;14785;52.556;13.430;2023-02-04T06:48:19;102505.06;;;2.92;100.00
27294;BME280;14785;52.556;13.430;2023-02-04T06:50:44;102510.31;;;2.92;100.00
27294;BME280;14785;52.556;13.430;2023-02-04T06:53:10;102525.91;;;2.75;100.00
27294;BME280;14785;52.556;13.430;2023-02-04T06:55:35;102512.03;;;2.93;100.00
27294;BME280;14785;52.556;13.430;2023-02-04T06:58:01;102521.56;;;2.74;100.00
27294;BME280;14785;52.556;13.430;2023-02-04T07:00:26;102523.66;;;2.66;100.00
27294;BME280;14785;52.556;13.430;2023-02-04T07:02:52;102523.09;;;2.58;100.00
27294;BME280;14785;52.556;13.430;2023-02-04T07:05:17;102518.38;;;2.45;100.00
27294;BME280;14785;52.556;13.430;2023-02-04T07:07:43;102519.63;;;2.79;100.00
27294;BME280;14785;52.556;13.430;2023-02-04T07:10:08;102531.53;;;3.29;100.00
27294;BME280;14785;52.556;13.430;2023-02-04T07:12:34;102524.28;;;3.34;100.00
27294;BME280;14785;52.556;13.430;2023-02-04T07:14:59;102524.97;;;3.39;100.00
27294;BME280;14785;52.556;13.430;2023-02-04T07:17:25;102525.94;;;3.17;100.00
27294;BME280;14785;52.556;13.430;2023-02-04T07:19:50;102532.00;;;3.39;100.00
27294;BME280;14785;52.556;13.430;2023-02-04T07:22:17;102535.00;;;3.30;100.00
27294;BME280;14785;52.556;13.430;2023-02-04T07:24:42;102537.34;;;3.57;100.00
27294;BME280;14785;52.556;13.430;2023-02-04T07:27:07;102553.50;;;3.88;100.00
27294;BME280;14785;52.556;13.430;2023-02-04T07:29:33;102560.25;;;2.92;100.00
27294;BME280;14785;52.556;13.430;2023-02-04T07:31:58;102567.78;;;2.80;100.00
27294;BME280;14785;52.556;13.430;2023-02-04T07:34:24;102567.94;;;3.18;100.00
27294;BME280;14785;52.556;13.430;2023-02-04T07:36:49;102579.03;;;3.46;100.00
27294;BME280;14785;52.556;13.430;2023-02-04T07:39:15;102577.97;;;3.70;100.00
27294;BME280;14785;52.556;13.430;2023-02-04T07:41:40;102577.75;;;3.35;100.00
27294;BME280;14785;52.556;13.430;2023-02-04T07:44:05;102584.50;;;3.20;100.00
27294;BME280;14785;52.556;13.430;2023-02-04T07:46:31;102582.84;;;3.39;100.00
27294;BME280;14785;52.556;13.430;2023-02-04T07:48:56;102595.81;;;4.04;100.00
27294;BME280;14785;52.556;13.430;2023-02-04T07:51:22;102604.88;;;3.57;100.00
27294;BME280;14785;52.556;13.430;2023-02-04T07:53:47;102609.69;;;3.87;100.00
27294;BME280;14785;52.556;13.430;2023-02-04T07:56:13;102613.22;;;3.86;100.00
27294;BME280;14785;52.556;13.430;2023-02-04T07:58:38;102617.22;;;3.55;100.00
27294;BME280;14785;52.556;13.430;2023-02-04T08:01:04;102618.22;;;3.92;100.00
27294;BME280;14785;52.556;13.430;2023-02-04T08:03:29;102628.13;;;3.87;100.00
27294;BME280;14785;52.556;13.430;2023-02-04T08:05:55;102629.25;;;3.40;100.00
27294;BME280;14785;52.556;13.430;2023-02-04T08:08:20;102631.31;;;3.32;100.00
27294;BME280;14785;52.556;13.430;2023-02-04T08:10:46;102636.03;;;3.87;100.00
27294;BME280;14785;52.556;13.430;2023-02-04T08:13:11;102642.06;;;4.10;100.00
27294;BME280;14785;52.556;13.430;2023-02-04T08:15:37;102649.78;;;3.52;100.00
27294;BME280;14785;52.556;13.430;2023-02-04T08:18:02;102650.91;;;4.09;100.00
27294;BME280;14785;52.556;13.430;2023-02-04T08:20:28;102655.78;;;4.36;100.00
27294;BME280;14785;52.556;13.430;2023-02-04T08:22:54;102654.56;;;4.05;100.00
27294;BME280;14785;52.556;13.430;2023-02-04T08:25:19;102660.59;;;4.27;100.00
27294;BME280;14785;52.556;13.430;2023-02-04T08:27:45;102664.91;;;3.89;100.00
27294;BME280;14785;52.556;13.430;2023-02-04T08:30:10;102667.13;;;4.57;100.00
27294;BME280;14785;52.556;13.430;2023-02-04T08:32:36;102673.66;;;4.10;100.00
27294;BME280;14785;52.556;13.430;2023-02-04T08:35:04;102667.25;;;4.15;100.00
27294;BME280;14785;52.556;13.430;2023-02-04T08:37:29;102671.81;;;4.12;100.00
27294;BME280;14785;52.556;13.430;2023-02-04T08:39:55;102680.47;;;3.73;100.00
27294;BME280;14785;52.556;13.430;2023-02-04T08:42:21;102686.75;;;3.49;100.00
27294;BME280;14785;52.556;13.430;2023-02-04T08:44:47;102687.44;;;3.54;100.00
27294;BME280;14785;52.556;13.430;2023-02-04T08:47:12;102681.22;;;3.77;100.00
27294;BME280;14785;52.556;13.430;2023-02-04T08:49:37;102682.47;;;4.49;100.00
27294;BME280;14785;52.556;13.430;2023-02-04T08:52:03;102689.25;;;4.73;100.00
27294;BME280;14785;52.556;13.430;2023-02-04T08:54:30;102688.56;;;4.88;100.00
27294;BME280;14785;52.556;13.430;2023-02-04T08:56:55;102688.91;;;5.17;100.00
27294;BME280;14785;52.556;13.430;2023-02-04T08:59:21;102700.59;;;5.12;100.00
27294;BME280;14785;52.556;13.430;2023-02-04T09:01:48;102693.31;;;5.17;100.00
27294;BME280;14785;52.556;13.430;2023-02-04T09:04:19;102702.13;;;4.60;100.00
27294;BME280;14785;52.556;13.430;2023-02-04T09:06:46;102695.03;;;4.81;100.00
27294;BME280;14785;52.556;13.430;2023-02-04T09:09:12;102706.94;;;4.89;100.00
27294;BME280;14785;52.556;13.430;2023-02-04T09:11:38;102707.16;;;4.85;100.00
27294;BME280;14785;52.556;13.430;2023-02-04T09:14:03;102709.22;;;4.40;100.00
27294;BME280;14785;52.556;13.430;2023-02-04T09:16:30;102717.56;;;4.88;100.00
27294;BME280;14785;52.556;13.430;2023-02-04T09:18:56;102709.31;;;4.95;100.00
27294;BME280;14785;52.556;13.430;2023-02-04T09:21:24;102725.22;;;5.48;100.00
27294;BME280;14785;52.556;13.430;2023-02-04T09:23:50;102721.22;;;5.58;100.00
27294;BME280;14785;52.556;13.430;2023-02-04T09:26:17;102723.19;;;5.71;100.00
27294;BME280;14785;52.556;13.430;2023-02-04T09:28:43;102726.03;;;5.85;100.00
27294;BME280;14785;52.556;13.430;2023-02-04T09:31:08;102730.53;;;6.01;100.00
27294;BME280;14785;52.556;13.430;2023-02-04T09:33:34;102742.75;;;6.20;100.00
27294;BME280;14785;52.556;13.430;2023-02-04T09:36:00;102741.50;;;6.44;100.00
27294;BME280;14785;52.556;13.430;2023-02-04T09:38:25;102750.66;;;6.54;100.00
27294;BME280;14785;52.556;13.430;2023-02-04T09:41:01;102748.31;;;6.48;100.00
27294;BME280;14785;52.556;13.430;2023-02-04T09:43:29;102751.13;;;6.62;100.00
27294;BME280;14785;52.556;13.430;2023-02-04T09:45:56;102760.91;;;6.77;100.00
27294;BME280;14785;52.556;13.430;2023-02-04T09:48:23;102754.94;;;6.57;100.00
27294;BME280;14785;52.556;13.430;2023-02-04T09:50:51;102762.63;;;6.27;100.00
27294;BME280;14785;52.556;13.430;2023-02-04T09:53:22;102759.00;;;6.30;100.00
27294;BME280;14785;52.556;13.430;2023-02-04T09:55:49;102756.56;;;6.59;100.00
27294;BME280;14785;52.556;13.430;2023-02-04T09:58:20;102767.78;;;6.47;100.00
27294;BME280;14785;52.556;13.430;2023-02-04T10:00:51;102760.53;;;5.81;100.00
27294;BME280;14785;52.556;13.430;2023-02-04T10:03:18;102760.09;;;6.09;100.00
27294;BME280;14785;52.556;13.430;2023-02-04T10:06:04;102772.16;;;6.31;100.00
27294;BME280;14785;52.556;13.430;2023-02-04T10:08:32;102766.69;;;6.00;100.00
27294;BME280;14785;52.556;13.430;2023-02-04T10:10:58;102767.16;;;6.42;100.00
27294;BME280;14785;52.556;13.430;2023-02-04T10:13:30;102774.16;;;6.26;100.00
27294;BME280;14785;52.556;13.430;2023-02-04T10:15:57;102774.06;;;6.62;100.00
27294;BME280;14785;52.556;13.430;2023-02-04T10:18:29;102773.09;;;6.80;100.00
27294;BME280;14785;52.556;13.430;2023-02-04T10:21:04;102770.28;;;6.83;100.00
27294;BME280;14785;52.556;13.430;2023-02-04T10:23:33;102768.69;;;6.63;100.00
27294;BME280;14785;52.556;13.430;2023-02-04T10:25:58;102769.44;;;6.82;100.00
27294;BME280;14785;52.556;13.430;2023-02-04T10:28:35;102774.81;;;7.44;100.00
27294;BME280;14785;52.556;13.430;2023-02-04T10:31:00;102781.84;;;7.76;100.00
27294;BME280;14785;52.556;13.430;2023-02-04T10:33:26;102780.97;;;7.60;100.00
27294;BME280;14785;52.556;13.430;2023-02-04T10:35:53;102775.63;;;8.23;100.00
27294;BME280;14785;52.556;13.430;2023-02-04T10:38:19;102772.59;;;8.13;100.00
27294;BME280;14785;52.556;13.430;2023-02-04T10:40:47;102773.94;;;7.91;100.00
27294;BME280;14785;52.556;13.430;2023-02-04T10:43:31;102778.25;;;7.77;100.00
27294;BME280;14785;52.556;13.430;2023-02-04T10:46:00;102786.78;;;7.82;100.00
27294;BME280;14785;52.556;13.430;2023-02-04T10:48:26;102776.31;;;7.95;100.00
27294;BME280;14785;52.556;13.430;2023-02-04T10:50:55;102776.63;;;8.20;100.00
27294;BME280;14785;52.556;13.430;2023-02-04T10:53:23;102777.25;;;8.97;100.00
27294;BME280;14785;52.556;13.430;2023-02-04T10:56:14;102777.44;;;8.94;100.00
27294;BME280;14785;52.556;13.430;2023-02-04T10:58:40;102785.94;;;8.12;100.00
27294;BME280;14785;52.556;13.430;2023-02-04T11:01:14;102790.88;;;7.88;100.00
27294;BME280;14785;52.556;13.430;2023-02-04T11:03:40;102787.19;;;8.06;100.00
27294;BME280;14785;52.556;13.430;2023-02-04T11:06:09;102790.44;;;8.41;100.00
27294;BME280;14785;52.556;13.430;2023-02-04T11:08:36;102786.75;;;8.43;100.00
27294;BME280;14785;52.556;13.430;2023-02-04T11:11:05;102780.84;;;8.82;100.00
27294;BME280;14785;52.556;13.430;2023-02-04T11:18:47;102791.81;;;8.76;100.00
27294;BME280;14785;52.556;13.430;2023-02-04T11:26:39;102794.38;;;8.34;100.00
27294;BME280;14785;52.556;13.430;2023-02-04T11:36:27;102812.00;;;7.90;100.00
27294;BME280;14785;52.556;13.430;2023-02-04T11:38:53;102820.97;;;7.71;100.00
27294;BME280;14785;52.556;13.430;2023-02-04T11:41:26;102825.88;;;7.31;100.00
27294;BME280;14785;52.556;13.430;2023-02-04T11:43:54;102825.81;;;7.63;100.00
27294;BME280;14785;52.556;13.430;2023-02-04T11:46:22;102836.31;;;8.12;100.00
27294;BME280;14785;52.556;13.430;2023-02-04T11:48:55;102829.75;;;8.78;100.00
27294;BME280;14785;52.556;13.430;2023-02-04T11:51:27;102838.41;;;7.60;100.00
27294;BME280;14785;52.556;13.430;2023-02-04T11:53:54;102838.22;;;6.31;100.00
27294;BME280;14785;52.556;13.430;2023-02-04T11:56:21;102821.56;;;6.63;100.00
27294;BME280;14785;52.556;13.430;2023-02-04T11:58:47;102829.19;;;6.69;100.00
27294;BME280;14785;52.556;13.430;2023-02-04T12:01:17;102829.47;;;7.45;100.00
27294;BME280;14785;52.556;13.430;2023-02-04T12:03:48;102820.75;;;7.12;100.00
27294;BME280;14785;52.556;13.430;2023-02-04T12:06:25;102821.28;;;7.34;100.00
27294;BME280;14785;52.556;13.430;2023-02-04T12:08:51;102826.53;;;7.19;100.00
27294;BME280;14785;52.556;13.430;2023-02-04T12:11:25;102837.72;;;6.06;100.00
27294;BME280;14785;52.556;13.430;2023-02-04T12:13:57;102821.25;;;5.64;100.00
27294;BME280;14785;52.556;13.430;2023-02-04T12:16:23;102827.34;;;6.37;100.00
27294;BME280;14785;52.556;13.430;2023-02-04T12:18:49;102832.22;;;7.28;100.00
27294;BME280;14785;52.556;13.430;2023-02-04T12:21:15;102827.94;;;8.35;100.00
27294;BME280;14785;52.556;13.430;2023-02-04T12:23:41;102839.75;;;8.14;100.00
27294;BME280;14785;52.556;13.430;2023-02-04T12:26:10;102837.72;;;8.78;100.00
27294;BME280;14785;52.556;13.430;2023-02-04T12:28:35;102835.00;;;8.50;100.00
27294;BME280;14785;52.556;13.430;2023-02-04T12:31:01;102842.31;;;8.15;100.00
27294;BME280;14785;52.556;13.430;2023-02-04T12:33:27;102855.66;;;7.98;100.00
27294;BME280;14785;52.556;13.430;2023-02-04T12:35:52;102855.81;;;7.95;100.00
27294;BME280;14785;52.556;13.430;2023-02-04T12:38:18;102854.88;;;8.12;100.00
27294;BME280;14785;52.556;13.430;2023-02-04T12:40:44;102856.41;;;7.84;100.00
27294;BME280;14785;52.556;13.430;2023-02-04T12:43:09;102856.78;;;8.55;100.00
27294;BME280;14785;52.556;13.430;2023-02-04T12:45:35;102859.72;;;8.19;100.00
27294;BME280;14785;52.556;13.430;2023-02-04T12:48:00;102856.03;;;8.53;100.00
27294;BME280;14785;52.556;13.430;2023-02-04T12:50:26;102847.38;;;8.79;100.00
27294;BME280;14785;52.556;13.430;2023-02-04T12:52:56;102845.50;;;8.51;100.00
27294;BME280;14785;52.556;13.430;2023-02-04T12:55:24;102860.19;;;7.49;100.00
27294;BME280;14785;52.556;13.430;2023-02-04T12:57:50;102852.56;;;7.11;100.00